sensor_id;sensor_type;location;lat;lon;timestamp;P1;durP1;ratioP1;P2;durP2;ratioP2
60641;SDS011;46837;52.446;-1.930;2023-04-30T00:00:08;34.08;;;27.16;;
60641;SDS011;46837;52.446;-1.930;2023-04-30T00:01:07;31.48;;;25.70;;
60641;SDS011;46837;52.446;-1.930;2023-04-30T00:02:07;37.46;;;29.34;;
60641;SDS011;46837;52.446;-1.930;2023-04-30T00:03:07;39.40;;;29.50;;
60641;SDS011;46837;52.446;-1.930;2023-04-30T00:04:07;31.42;;;25.64;;
60641;SDS011;46837;52.446;-1.930;2023-04-30T00:05:07;30.70;;;24.12;;
60641;SDS011;46837;52.446;-1.930;2023-04-30T00:06:07;30.96;;;24.38;;
60641;SDS011;46837;52.446;-1.930;2023-04-30T00:07:07;25.00;;;20.12;;
60641;SDS011;46837;52.446;-1.930;2023-04-30T00:08:07;25.98;;;21.22;;
60641;SDS011;46837;52.446;-1.930;2023-04-30T00:09:07;29.44;;;21.42;;
60641;SDS011;46837;52.446;-1.930;2023-04-30T00:10:08;26.14;;;21.88;;
60641;SDS011;46837;52.446;-1.930;2023-04-30T00:11:07;25.54;;;22.12;;
60641;SDS011;46837;52.446;-1.930;2023-04-30T00:12:07;26.36;;;20.92;;
60641;SDS011;46837;52.446;-1.930;2023-04-30T00:13:07;30.22;;;23.94;;
60641;SDS011;46837;52.446;-1.930;2023-04-30T00:14:07;25.74;;;20.96;;
60641;SDS011;46837;52.446;-1.930;2023-04-30T00:15:07;29.38;;;23.48;;
60641;SDS011;46837;52.446;-1.930;2023-04-30T00:16:07;23.68;;;20.24;;
60641;SDS011;46837;52.446;-1.930;2023-04-30T00:17:07;27.02;;;20.88;;
60641;SDS011;46837;52.446;-1.930;2023-04-30T00:18:07;28.54;;;20.28;;
60641;SDS011;46837;52.446;-1.930;2023-04-30T00:19:07;29.34;;;20.86;;
60641;SDS011;46837;52.446;-1.930;2023-04-30T00:20:07;24.34;;;21.52;;
60641;SDS011;46837;52.446;-1.930;2023-04-30T00:21:07;30.08;;;22.50;;
60641;SDS011;46837;52.446;-1.930;2023-04-30T00:22:07;32.88;;;24.36;;
60641;SDS011;46837;52.446;-1.930;2023-04-30T00:23:07;32.38;;;24.20;;
60641;SDS011;46837;52.446;-1.930;2023-04-30T00:24:07;33.06;;;23.72;;
60641;SDS011;46837;52.446;-1.930;2023-04-30T00:25:07;34.94;;;24.94;;
60641;SDS011;46837;52.446;-1.930;2023-04-30T00:26:07;32.58;;;24.92;;
60641;SDS011;46837;52.446;-1.930;2023-04-30T00:27:07;30.34;;;22.18;;
60641;SDS011;46837;52.446;-1.930;2023-04-30T00:28:07;30.02;;;22.74;;
60641;SDS011;46837;52.446;-1.930;2023-04-30T00:29:07;29.12;;;20.18;;
60641;SDS011;46837;52.446;-1.930;2023-04-30T00:30:07;32.74;;;23.86;;
60641;SDS011;46837;52.446;-1.930;2023-04-30T00:31:08;32.12;;;25.86;;
60641;SDS011;46837;52.446;-1.930;2023-04-30T00:32:07;31.36;;;23.82;;
60641;SDS011;46837;52.446;-1.930;2023-04-30T00:33:07;32.66;;;24.62;;
60641;SDS011;46837;52.446;-1.930;2023-04-30T00:34:07;34.38;;;25.98;;
60641;SDS011;46837;52.446;-1.930;2023-04-30T00:35:07;37.08;;;26.62;;
60641;SDS011;46837;52.446;-1.930;2023-04-30T00:36:07;37.92;;;27.40;;
60641;SDS011;46837;52.446;-1.930;2023-04-30T00:37:07;37.30;;;25.90;;
60641;SDS011;46837;52.446;-1.930;2023-04-30T00:38:07;31.60;;;24.52;;
60641;SDS011;46837;52.446;-1.930;2023-04-30T00:39:07;37.24;;;26.68;;
60641;SDS011;46837;52.446;-1.930;2023-04-30T00:40:07;31.82;;;26.00;;
60641;SDS011;46837;52.446;-1.930;2023-04-30T00:41:07;35.86;;;25.24;;
60641;SDS011;46837;52.446;-1.930;2023-04-30T00:42:07;35.30;;;25.40;;
60641;SDS011;46837;52.446;-1.930;2023-04-30T00:43:07;35.56;;;28.08;;
60641;SDS011;46837;52.446;-1.930;2023-04-30T00:44:07;36.42;;;28.72;;
60641;SDS011;46837;52.446;-1.930;2023-04-30T00:45:07;39.64;;;28.10;;
60641;SDS011;46837;52.446;-1.930;2023-04-30T00:46:07;36.88;;;27.18;;
60641;SDS011;46837;52.446;-1.930;2023-04-30T00:47:07;37.50;;;27.06;;
60641;SDS011;46837;52.446;-1.930;2023-04-30T00:48:07;46.32;;;30.40;;
60641;SDS011;46837;52.446;-1.930;2023-04-30T00:49:07;40.78;;;29.34;;
60641;SDS011;46837;52.446;-1.930;2023-04-30T00:50:07;43.28;;;30.98;;
60641;SDS011;46837;52.446;-1.930;2023-04-30T00:51:07;43.16;;;31.48;;
60641;SDS011;46837;52.446;-1.930;2023-04-30T00:52:07;43.56;;;31.26;;
60641;SDS011;46837;52.446;-1.930;2023-04-30T00:53:07;43.00;;;30.48;;
60641;SDS011;46837;52.446;-1.930;2023-04-30T00:54:07;42.22;;;29.32;;
60641;SDS011;46837;52.446;-1.930;2023-04-30T00:55:07;45.70;;;31.38;;
60641;SDS011;46837;52.446;-1.930;2023-04-30T00:56:07;49.10;;;32.00;;
60641;SDS011;46837;52.446;-1.930;2023-04-30T00:57:07;43.62;;;31.72;;
60641;SDS011;46837;52.446;-1.930;2023-04-30T00:58:07;43.82;;;33.34;;
60641;SDS011;46837;52.446;-1.930;2023-04-30T00:59:07;51.64;;;33.64;;
60641;SDS011;46837;52.446;-1.930;2023-04-30T01:00:07;45.58;;;32.12;;
60641;SDS011;46837;52.446;-1.930;2023-04-30T01:01:07;43.66;;;29.66;;
60641;SDS011;46837;52.446;-1.930;2023-04-30T01:02:07;60.24;;;35.20;;
60641;SDS011;46837;52.446;-1.930;2023-04-30T01:03:07;52.52;;;33.66;;
60641;SDS011;46837;52.446;-1.930;2023-04-30T01:04:07;51.64;;;35.88;;
60641;SDS011;46837;52.446;-1.930;2023-04-30T01:05:07;49.00;;;33.58;;
60641;SDS011;46837;52.446;-1.930;2023-04-30T01:06:07;49.20;;;32.60;;
60641;SDS011;46837;52.446;-1.930;2023-04-30T01:07:07;52.00;;;35.96;;
60641;SDS011;46837;52.446;-1.930;2023-04-30T01:08:07;51.68;;;33.46;;
60641;SDS011;46837;52.446;-1.930;2023-04-30T01:09:07;54.26;;;36.04;;
60641;SDS011;46837;52.446;-1.930;2023-04-30T01:10:07;56.60;;;37.04;;
60641;SDS011;46837;52.446;-1.930;2023-04-30T01:12:12;51.88;;;34.26;;
60641;SDS011;46837;52.446;-1.930;2023-04-30T01:13:09;49.30;;;33.48;;
60641;SDS011;46837;52.446;-1.930;2023-04-30T01:15:50;58.60;;;37.48;;
60641;SDS011;46837;52.446;-1.930;2023-04-30T01:17:27;53.66;;;34.86;;
60641;SDS011;46837;52.446;-1.930;2023-04-30T01:19:16;59.54;;;36.90;;
60641;SDS011;46837;52.446;-1.930;2023-04-30T01:20:07;55.60;;;36.62;;
60641;SDS011;46837;52.446;-1.930;2023-04-30T01:21:07;55.20;;;35.36;;
60641;SDS011;46837;52.446;-1.930;2023-04-30T01:22:08;58.30;;;37.22;;
60641;SDS011;46837;52.446;-1.930;2023-04-30T01:28:08;58.02;;;37.88;;
60641;SDS011;46837;52.446;-1.930;2023-04-30T01:29:07;55.50;;;35.28;;
60641;SDS011;46837;52.446;-1.930;2023-04-30T01:30:07;51.88;;;34.94;;
60641;SDS011;46837;52.446;-1.930;2023-04-30T01:32:07;54.40;;;37.54;;
60641;SDS011;46837;52.446;-1.930;2023-04-30T01:33:07;51.56;;;35.76;;
60641;SDS011;46837;52.446;-1.930;2023-04-30T01:34:07;55.20;;;38.10;;
60641;SDS011;46837;52.446;-1.930;2023-04-30T01:35:07;70.74;;;40.40;;
60641;SDS011;46837;52.446;-1.930;2023-04-30T01:41:12;57.34;;;34.74;;
60641;SDS011;46837;52.446;-1.930;2023-04-30T01:42:10;69.62;;;40.74;;
60641;SDS011;46837;52.446;-1.930;2023-04-30T01:43:29;55.02;;;37.02;;
60641;SDS011;46837;52.446;-1.930;2023-04-30T01:46:10;59.78;;;37.90;;
60641;SDS011;46837;52.446;-1.930;2023-04-30T01:47:08;56.04;;;37.26;;
60641;SDS011;46837;52.446;-1.930;2023-04-30T01:48:14;61.72;;;36.30;;
60641;SDS011;46837;52.446;-1.930;2023-04-30T01:50:08;59.90;;;37.88;;
60641;SDS011;46837;52.446;-1.930;2023-04-30T01:52:16;54.80;;;37.70;;
60641;SDS011;46837;52.446;-1.930;2023-04-30T01:53:08;56.40;;;37.10;;
60641;SDS011;46837;52.446;-1.930;2023-04-30T01:55:07;57.54;;;37.92;;
60641;SDS011;46837;52.446;-1.930;2023-04-30T01:56:26;60.74;;;37.24;;
60641;SDS011;46837;52.446;-1.930;2023-04-30T01:57:08;68.56;;;39.00;;
60641;SDS011;46837;52.446;-1.930;2023-04-30T01:58:09;66.44;;;40.24;;
60641;SDS011;46837;52.446;-1.930;2023-04-30T01:59:07;55.90;;;36.76;;
60641;SDS011;46837;52.446;-1.930;2023-04-30T02:00:07;56.52;;;37.12;;
60641;SDS011;46837;52.446;-1.930;2023-04-30T02:01:07;51.60;;;34.38;;
60641;SDS011;46837;52.446;-1.930;2023-04-30T02:02:07;54.34;;;34.84;;
60641;SDS011;46837;52.446;-1.930;2023-04-30T02:03:07;55.78;;;35.50;;
60641;SDS011;46837;52.446;-1.930;2023-04-30T02:04:07;45.56;;;34.04;;
60641;SDS011;46837;52.446;-1.930;2023-04-30T02:05:07;48.60;;;34.78;;
60641;SDS011;46837;52.446;-1.930;2023-04-30T02:06:07;52.46;;;35.18;;
60641;SDS011;46837;52.446;-1.930;2023-04-30T02:07:07;51.66;;;34.38;;
60641;SDS011;46837;52.446;-1.930;2023-04-30T02:08:07;54.58;;;35.32;;
60641;SDS011;46837;52.446;-1.930;2023-04-30T02:09:07;50.42;;;34.82;;
60641;SDS011;46837;52.446;-1.930;2023-04-30T02:10:07;51.78;;;34.64;;
60641;SDS011;46837;52.446;-1.930;2023-04-30T02:11:07;49.94;;;33.86;;
60641;SDS011;46837;52.446;-1.930;2023-04-30T02:12:07;51.62;;;33.70;;
60641;SDS011;46837;52.446;-1.930;2023-04-30T02:13:07;49.02;;;33.14;;
60641;SDS011;46837;52.446;-1.930;2023-04-30T02:14:07;54.70;;;33.84;;
60641;SDS011;46837;52.446;-1.930;2023-04-30T02:15:07;51.28;;;33.28;;
60641;SDS011;46837;52.446;-1.930;2023-04-30T02:16:07;49.20;;;33.30;;
60641;SDS011;46837;52.446;-1.930;2023-04-30T02:17:07;47.74;;;33.50;;
60641;SDS011;46837;52.446;-1.930;2023-04-30T02:18:07;53.18;;;34.54;;
60641;SDS011;46837;52.446;-1.930;2023-04-30T02:19:07;48.34;;;33.86;;
60641;SDS011;46837;52.446;-1.930;2023-04-30T02:20:07;56.56;;;34.50;;
60641;SDS011;46837;52.446;-1.930;2023-04-30T02:21:07;53.86;;;32.58;;
60641;SDS011;46837;52.446;-1.930;2023-04-30T02:22:07;48.94;;;33.38;;
60641;SDS011;46837;52.446;-1.930;2023-04-30T02:23:07;51.98;;;33.92;;
60641;SDS011;46837;52.446;-1.930;2023-04-30T02:24:07;50.98;;;33.28;;
60641;SDS011;46837;52.446;-1.930;2023-04-30T02:25:07;46.00;;;32.52;;
60641;SDS011;46837;52.446;-1.930;2023-04-30T02:26:07;48.04;;;32.14;;
60641;SDS011;46837;52.446;-1.930;2023-04-30T02:27:07;45.92;;;32.02;;
60641;SDS011;46837;52.446;-1.930;2023-04-30T02:28:07;50.10;;;32.00;;
60641;SDS011;46837;52.446;-1.930;2023-04-30T02:29:07;45.60;;;31.34;;
60641;SDS011;46837;52.446;-1.930;2023-04-30T02:30:07;53.84;;;32.26;;
60641;SDS011;46837;52.446;-1.930;2023-04-30T02:31:07;50.98;;;32.30;;
60641;SDS011;46837;52.446;-1.930;2023-04-30T02:32:07;44.08;;;29.00;;
60641;SDS011;46837;52.446;-1.930;2023-04-30T02:33:07;47.98;;;31.26;;
60641;SDS011;46837;52.446;-1.930;2023-04-30T02:34:07;43.74;;;29.94;;
60641;SDS011;46837;52.446;-1.930;2023-04-30T02:35:07;45.38;;;29.20;;
60641;SDS011;46837;52.446;-1.930;2023-04-30T02:36:07;47.18;;;30.88;;
60641;SDS011;46837;52.446;-1.930;2023-04-30T02:37:07;42.92;;;30.28;;
60641;SDS011;46837;52.446;-1.930;2023-04-30T02:38:07;44.38;;;30.70;;
60641;SDS011;46837;52.446;-1.930;2023-04-30T02:39:07;49.26;;;30.06;;
60641;SDS011;46837;52.446;-1.930;2023-04-30T02:40:07;41.12;;;27.36;;
60641;SDS011;46837;52.446;-1.930;2023-04-30T02:41:07;45.64;;;29.66;;
60641;SDS011;46837;52.446;-1.930;2023-04-30T02:42:07;43.88;;;31.02;;
60641;SDS011;46837;52.446;-1.930;2023-04-30T02:43:07;41.92;;;28.54;;
60641;SDS011;46837;52.446;-1.930;2023-04-30T02:44:07;44.36;;;28.96;;
60641;SDS011;46837;52.446;-1.930;2023-04-30T02:45:07;42.32;;;28.26;;
60641;SDS011;46837;52.446;-1.930;2023-04-30T02:46:07;43.10;;;29.06;;
60641;SDS011;46837;52.446;-1.930;2023-04-30T02:47:07;42.00;;;29.02;;
60641;SDS011;46837;52.446;-1.930;2023-04-30T02:48:07;43.82;;;28.08;;
60641;SDS011;46837;52.446;-1.930;2023-04-30T02:49:07;44.22;;;28.48;;
60641;SDS011;46837;52.446;-1.930;2023-04-30T02:50:07;40.58;;;24.42;;
60641;SDS011;46837;52.446;-1.930;2023-04-30T02:51:07;40.52;;;26.48;;
60641;SDS011;46837;52.446;-1.930;2023-04-30T02:52:07;38.14;;;26.54;;
60641;SDS011;46837;52.446;-1.930;2023-04-30T02:53:07;33.50;;;25.98;;
60641;SDS011;46837;52.446;-1.930;2023-04-30T02:54:07;40.88;;;24.12;;
60641;SDS011;46837;52.446;-1.930;2023-04-30T02:55:07;40.50;;;26.02;;
60641;SDS011;46837;52.446;-1.930;2023-04-30T02:56:07;36.00;;;25.88;;
60641;SDS011;46837;52.446;-1.930;2023-04-30T02:57:07;36.88;;;23.66;;
60641;SDS011;46837;52.446;-1.930;2023-04-30T02:58:07;31.54;;;24.08;;
60641;SDS011;46837;52.446;-1.930;2023-04-30T02:59:07;31.02;;;23.46;;
60641;SDS011;46837;52.446;-1.930;2023-04-30T03:00:07;34.14;;;24.30;;
60641;SDS011;46837;52.446;-1.930;2023-04-30T03:01:07;34.76;;;22.42;;
60641;SDS011;46837;52.446;-1.930;2023-04-30T03:02:07;36.80;;;23.58;;
60641;SDS011;46837;52.446;-1.930;2023-04-30T03:03:07;31.60;;;22.82;;
60641;SDS011;46837;52.446;-1.930;2023-04-30T03:04:07;36.86;;;23.84;;
60641;SDS011;46837;52.446;-1.930;2023-04-30T03:05:07;33.92;;;23.78;;
60641;SDS011;46837;52.446;-1.930;2023-04-30T03:06:07;29.12;;;22.58;;
60641;SDS011;46837;52.446;-1.930;2023-04-30T03:07:07;38.08;;;24.38;;
60641;SDS011;46837;52.446;-1.930;2023-04-30T03:08:07;27.76;;;20.54;;
60641;SDS011;46837;52.446;-1.930;2023-04-30T03:09:07;31.22;;;20.84;;
60641;SDS011;46837;52.446;-1.930;2023-04-30T03:10:07;33.54;;;22.56;;
60641;SDS011;46837;52.446;-1.930;2023-04-30T03:11:07;33.00;;;23.10;;
60641;SDS011;46837;52.446;-1.930;2023-04-30T03:12:07;30.76;;;21.26;;
60641;SDS011;46837;52.446;-1.930;2023-04-30T03:13:07;32.28;;;21.80;;
60641;SDS011;46837;52.446;-1.930;2023-04-30T03:14:07;33.26;;;21.04;;
60641;SDS011;46837;52.446;-1.930;2023-04-30T03:15:07;36.74;;;24.70;;
60641;SDS011;46837;52.446;-1.930;2023-04-30T03:16:07;31.62;;;21.58;;
60641;SDS011;46837;52.446;-1.930;2023-04-30T03:17:07;29.30;;;20.02;;
60641;SDS011;46837;52.446;-1.930;2023-04-30T03:18:07;33.44;;;22.66;;
60641;SDS011;46837;52.446;-1.930;2023-04-30T03:19:07;30.66;;;21.00;;
60641;SDS011;46837;52.446;-1.930;2023-04-30T03:20:07;26.50;;;19.58;;
60641;SDS011;46837;52.446;-1.930;2023-04-30T03:21:07;28.44;;;21.38;;
60641;SDS011;46837;52.446;-1.930;2023-04-30T03:22:07;28.74;;;21.78;;
60641;SDS011;46837;52.446;-1.930;2023-04-30T03:23:07;30.98;;;22.52;;
60641;SDS011;46837;52.446;-1.930;2023-04-30T03:24:07;29.14;;;20.58;;
60641;SDS011;46837;52.446;-1.930;2023-04-30T03:25:07;28.44;;;19.86;;
60641;SDS011;46837;52.446;-1.930;2023-04-30T03:26:07;31.34;;;21.32;;
60641;SDS011;46837;52.446;-1.930;2023-04-30T03:27:07;29.42;;;22.02;;
60641;SDS011;46837;52.446;-1.930;2023-04-30T03:28:07;29.94;;;21.58;;
60641;SDS011;46837;52.446;-1.930;2023-04-30T03:29:07;34.00;;;22.96;;
60641;SDS011;46837;52.446;-1.930;2023-04-30T03:30:07;28.10;;;20.18;;
60641;SDS011;46837;52.446;-1.930;2023-04-30T03:31:07;30.76;;;21.78;;
60641;SDS011;46837;52.446;-1.930;2023-04-30T03:32:07;30.92;;;21.58;;
60641;SDS011;46837;52.446;-1.930;2023-04-30T03:33:08;32.32;;;21.90;;
60641;SDS011;46837;52.446;-1.930;2023-04-30T03:34:07;37.90;;;22.54;;
60641;SDS011;46837;52.446;-1.930;2023-04-30T03:35:07;32.56;;;22.56;;
60641;SDS011;46837;52.446;-1.930;2023-04-30T03:36:07;30.38;;;21.86;;
60641;SDS011;46837;52.446;-1.930;2023-04-30T03:37:07;35.74;;;22.56;;
60641;SDS011;46837;52.446;-1.930;2023-04-30T03:38:07;33.48;;;23.04;;
60641;SDS011;46837;52.446;-1.930;2023-04-30T03:39:07;33.52;;;22.10;;
60641;SDS011;46837;52.446;-1.930;2023-04-30T03:40:07;35.10;;;23.52;;
60641;SDS011;46837;52.446;-1.930;2023-04-30T03:41:07;32.62;;;21.82;;
60641;SDS011;46837;52.446;-1.930;2023-04-30T03:42:07;32.12;;;22.52;;
60641;SDS011;46837;52.446;-1.930;2023-04-30T03:43:07;29.88;;;20.44;;
60641;SDS011;46837;52.446;-1.930;2023-04-30T03:44:07;37.38;;;21.78;;
60641;SDS011;46837;52.446;-1.930;2023-04-30T03:45:07;29.52;;;20.24;;
60641;SDS011;46837;52.446;-1.930;2023-04-30T03:46:07;28.98;;;20.02;;
60641;SDS011;46837;52.446;-1.930;2023-04-30T03:47:07;30.18;;;21.02;;
60641;SDS011;46837;52.446;-1.930;2023-04-30T03:48:07;33.00;;;21.36;;
60641;SDS011;46837;52.446;-1.930;2023-04-30T03:49:07;27.78;;;18.90;;
60641;SDS011;46837;52.446;-1.930;2023-04-30T03:50:07;29.50;;;21.08;;
60641;SDS011;46837;52.446;-1.930;2023-04-30T03:51:07;28.08;;;19.96;;
60641;SDS011;46837;52.446;-1.930;2023-04-30T03:52:07;36.42;;;20.02;;
60641;SDS011;46837;52.446;-1.930;2023-04-30T03:53:07;30.10;;;21.66;;
60641;SDS011;46837;52.446;-1.930;2023-04-30T03:54:07;27.26;;;19.98;;
60641;SDS011;46837;52.446;-1.930;2023-04-30T03:55:07;31.08;;;20.48;;
60641;SDS011;46837;52.446;-1.930;2023-04-30T03:56:07;34.16;;;20.48;;
60641;SDS011;46837;52.446;-1.930;2023-04-30T03:57:07;34.26;;;20.26;;
60641;SDS011;46837;52.446;-1.930;2023-04-30T03:58:07;30.74;;;20.56;;
60641;SDS011;46837;52.446;-1.930;2023-04-30T03:59:07;28.86;;;21.68;;
60641;SDS011;46837;52.446;-1.930;2023-04-30T04:00:09;30.38;;;21.54;;
60641;SDS011;46837;52.446;-1.930;2023-04-30T04:01:07;33.14;;;21.86;;
60641;SDS011;46837;52.446;-1.930;2023-04-30T04:02:07;31.58;;;20.44;;
60641;SDS011;46837;52.446;-1.930;2023-04-30T04:03:07;30.06;;;21.84;;
60641;SDS011;46837;52.446;-1.930;2023-04-30T04:04:07;33.68;;;21.26;;
60641;SDS011;46837;52.446;-1.930;2023-04-30T04:05:07;33.46;;;22.30;;
60641;SDS011;46837;52.446;-1.930;2023-04-30T04:06:07;29.96;;;20.40;;
60641;SDS011;46837;52.446;-1.930;2023-04-30T04:07:07;33.62;;;21.82;;
60641;SDS011;46837;52.446;-1.930;2023-04-30T04:08:07;31.12;;;19.92;;
60641;SDS011;46837;52.446;-1.930;2023-04-30T04:09:07;33.14;;;22.94;;
60641;SDS011;46837;52.446;-1.930;2023-04-30T04:10:07;33.90;;;22.62;;
60641;SDS011;46837;52.446;-1.930;2023-04-30T04:11:07;35.26;;;22.18;;
60641;SDS011;46837;52.446;-1.930;2023-04-30T04:12:07;33.72;;;23.08;;
60641;SDS011;46837;52.446;-1.930;2023-04-30T04:13:07;28.16;;;19.56;;
60641;SDS011;46837;52.446;-1.930;2023-04-30T04:14:07;31.36;;;21.62;;
60641;SDS011;46837;52.446;-1.930;2023-04-30T04:15:07;31.84;;;22.18;;
60641;SDS011;46837;52.446;-1.930;2023-04-30T04:16:08;29.76;;;22.34;;
60641;SDS011;46837;52.446;-1.930;2023-04-30T04:17:07;30.48;;;22.82;;
60641;SDS011;46837;52.446;-1.930;2023-04-30T04:18:08;32.24;;;22.28;;
60641;SDS011;46837;52.446;-1.930;2023-04-30T04:19:07;32.36;;;22.16;;
60641;SDS011;46837;52.446;-1.930;2023-04-30T04:20:07;35.18;;;21.98;;
60641;SDS011;46837;52.446;-1.930;2023-04-30T04:21:07;29.86;;;21.36;;
60641;SDS011;46837;52.446;-1.930;2023-04-30T04:22:07;30.46;;;20.42;;
60641;SDS011;46837;52.446;-1.930;2023-04-30T04:23:07;32.56;;;21.92;;
60641;SDS011;46837;52.446;-1.930;2023-04-30T04:24:08;32.90;;;21.62;;
60641;SDS011;46837;52.446;-1.930;2023-04-30T04:25:07;37.70;;;22.60;;
60641;SDS011;46837;52.446;-1.930;2023-04-30T04:26:07;37.54;;;25.42;;
60641;SDS011;46837;52.446;-1.930;2023-04-30T04:27:07;32.46;;;22.70;;
60641;SDS011;46837;52.446;-1.930;2023-04-30T04:28:07;32.26;;;22.50;;
60641;SDS011;46837;52.446;-1.930;2023-04-30T04:29:07;34.80;;;22.08;;
60641;SDS011;46837;52.446;-1.930;2023-04-30T04:30:07;33.64;;;20.76;;
60641;SDS011;46837;52.446;-1.930;2023-04-30T04:31:07;28.60;;;19.94;;
60641;SDS011;46837;52.446;-1.930;2023-04-30T04:32:07;28.42;;;20.46;;
60641;SDS011;46837;52.446;-1.930;2023-04-30T04:33:07;32.92;;;22.14;;
60641;SDS011;46837;52.446;-1.930;2023-04-30T04:34:07;30.54;;;22.06;;
60641;SDS011;46837;52.446;-1.930;2023-04-30T04:35:07;28.56;;;20.88;;
60641;SDS011;46837;52.446;-1.930;2023-04-30T04:36:07;31.26;;;21.24;;
60641;SDS011;46837;52.446;-1.930;2023-04-30T04:37:07;37.22;;;22.08;;
60641;SDS011;46837;52.446;-1.930;2023-04-30T04:38:08;30.44;;;22.32;;
60641;SDS011;46837;52.446;-1.930;2023-04-30T04:39:07;33.10;;;21.42;;
60641;SDS011;46837;52.446;-1.930;2023-04-30T04:40:07;28.22;;;19.12;;
60641;SDS011;46837;52.446;-1.930;2023-04-30T04:41:07;31.86;;;21.90;;
60641;SDS011;46837;52.446;-1.930;2023-04-30T04:42:07;32.86;;;20.46;;
60641;SDS011;46837;52.446;-1.930;2023-04-30T04:43:07;27.94;;;21.28;;
60641;SDS011;46837;52.446;-1.930;2023-04-30T04:44:07;28.84;;;21.32;;
60641;SDS011;46837;52.446;-1.930;2023-04-30T04:45:07;39.24;;;23.46;;
60641;SDS011;46837;52.446;-1.930;2023-04-30T04:46:07;37.76;;;24.28;;
60641;SDS011;46837;52.446;-1.930;2023-04-30T04:47:07;29.46;;;22.20;;
60641;SDS011;46837;52.446;-1.930;2023-04-30T04:48:07;28.74;;;18.62;;
60641;SDS011;46837;52.446;-1.930;2023-04-30T04:49:07;30.00;;;19.24;;
60641;SDS011;46837;52.446;-1.930;2023-04-30T04:50:07;33.32;;;22.20;;
60641;SDS011;46837;52.446;-1.930;2023-04-30T04:51:07;32.72;;;21.52;;
60641;SDS011;46837;52.446;-1.930;2023-04-30T04:52:07;26.86;;;18.58;;
60641;SDS011;46837;52.446;-1.930;2023-04-30T04:53:07;23.08;;;18.82;;
60641;SDS011;46837;52.446;-1.930;2023-04-30T04:54:07;26.52;;;18.46;;
60641;SDS011;46837;52.446;-1.930;2023-04-30T04:55:07;25.08;;;19.02;;
60641;SDS011;46837;52.446;-1.930;2023-04-30T04:56:07;29.70;;;19.12;;
60641;SDS011;46837;52.446;-1.930;2023-04-30T04:57:07;26.88;;;19.80;;
60641;SDS011;46837;52.446;-1.930;2023-04-30T04:58:07;24.38;;;18.42;;
60641;SDS011;46837;52.446;-1.930;2023-04-30T04:59:07;24.58;;;17.58;;
60641;SDS011;46837;52.446;-1.930;2023-04-30T05:00:08;20.82;;;15.88;;
60641;SDS011;46837;52.446;-1.930;2023-04-30T05:01:07;24.46;;;18.62;;
60641;SDS011;46837;52.446;-1.930;2023-04-30T05:02:07;26.32;;;19.00;;
60641;SDS011;46837;52.446;-1.930;2023-04-30T05:03:07;25.58;;;18.48;;
60641;SDS011;46837;52.446;-1.930;2023-04-30T05:04:07;30.20;;;19.80;;
60641;SDS011;46837;52.446;-1.930;2023-04-30T05:05:07;29.06;;;19.74;;
60641;SDS011;46837;52.446;-1.930;2023-04-30T05:06:07;27.08;;;19.32;;
60641;SDS011;46837;52.446;-1.930;2023-04-30T05:07:07;28.24;;;18.30;;
60641;SDS011;46837;52.446;-1.930;2023-04-30T05:08:07;25.42;;;18.98;;
60641;SDS011;46837;52.446;-1.930;2023-04-30T05:09:08;23.88;;;19.24;;
60641;SDS011;46837;52.446;-1.930;2023-04-30T05:10:07;24.74;;;18.64;;
60641;SDS011;46837;52.446;-1.930;2023-04-30T05:11:07;37.78;;;20.56;;
60641;SDS011;46837;52.446;-1.930;2023-04-30T05:12:07;23.02;;;16.60;;
60641;SDS011;46837;52.446;-1.930;2023-04-30T05:13:07;27.30;;;18.04;;
60641;SDS011;46837;52.446;-1.930;2023-04-30T05:14:07;25.12;;;17.30;;
60641;SDS011;46837;52.446;-1.930;2023-04-30T05:15:07;24.00;;;17.72;;
60641;SDS011;46837;52.446;-1.930;2023-04-30T05:16:07;22.62;;;17.78;;
60641;SDS011;46837;52.446;-1.930;2023-04-30T05:17:07;30.70;;;19.10;;
60641;SDS011;46837;52.446;-1.930;2023-04-30T05:18:07;31.96;;;18.50;;
60641;SDS011;46837;52.446;-1.930;2023-04-30T05:19:07;24.06;;;17.64;;
60641;SDS011;46837;52.446;-1.930;2023-04-30T05:20:07;22.92;;;15.36;;
60641;SDS011;46837;52.446;-1.930;2023-04-30T05:21:07;19.32;;;16.34;;
60641;SDS011;46837;52.446;-1.930;2023-04-30T05:22:07;27.34;;;17.22;;
60641;SDS011;46837;52.446;-1.930;2023-04-30T05:23:07;23.20;;;17.44;;
60641;SDS011;46837;52.446;-1.930;2023-04-30T05:24:07;22.40;;;16.90;;
60641;SDS011;46837;52.446;-1.930;2023-04-30T05:25:07;24.84;;;17.44;;
60641;SDS011;46837;52.446;-1.930;2023-04-30T05:26:07;24.70;;;17.66;;
60641;SDS011;46837;52.446;-1.930;2023-04-30T05:27:07;26.86;;;16.78;;
60641;SDS011;46837;52.446;-1.930;2023-04-30T05:28:07;24.78;;;16.56;;
60641;SDS011;46837;52.446;-1.930;2023-04-30T05:29:07;25.60;;;17.74;;
60641;SDS011;46837;52.446;-1.930;2023-04-30T05:30:07;19.12;;;15.74;;
60641;SDS011;46837;52.446;-1.930;2023-04-30T05:31:07;23.56;;;18.04;;
60641;SDS011;46837;52.446;-1.930;2023-04-30T05:32:07;20.54;;;16.26;;
60641;SDS011;46837;52.446;-1.930;2023-04-30T05:33:07;26.30;;;16.14;;
60641;SDS011;46837;52.446;-1.930;2023-04-30T05:34:07;20.74;;;17.12;;
60641;SDS011;46837;52.446;-1.930;2023-04-30T05:35:07;26.94;;;17.98;;
60641;SDS011;46837;52.446;-1.930;2023-04-30T05:36:07;22.78;;;17.40;;
60641;SDS011;46837;52.446;-1.930;2023-04-30T05:37:07;30.48;;;19.24;;
60641;SDS011;46837;52.446;-1.930;2023-04-30T05:38:07;26.44;;;18.96;;
60641;SDS011;46837;52.446;-1.930;2023-04-30T05:39:07;24.58;;;17.60;;
60641;SDS011;46837;52.446;-1.930;2023-04-30T05:40:07;20.18;;;16.94;;
60641;SDS011;46837;52.446;-1.930;2023-04-30T05:42:07;25.26;;;18.34;;
60641;SDS011;46837;52.446;-1.930;2023-04-30T05:43:07;23.28;;;19.12;;
60641;SDS011;46837;52.446;-1.930;2023-04-30T05:44:07;24.54;;;19.92;;
60641;SDS011;46837;52.446;-1.930;2023-04-30T05:45:07;27.60;;;18.12;;
60641;SDS011;46837;52.446;-1.930;2023-04-30T05:46:07;27.98;;;18.34;;
60641;SDS011;46837;52.446;-1.930;2023-04-30T05:47:07;23.02;;;16.74;;
60641;SDS011;46837;52.446;-1.930;2023-04-30T05:48:07;29.02;;;17.80;;
60641;SDS011;46837;52.446;-1.930;2023-04-30T05:49:07;26.66;;;18.82;;
60641;SDS011;46837;52.446;-1.930;2023-04-30T05:50:08;27.84;;;18.56;;
60641;SDS011;46837;52.446;-1.930;2023-04-30T05:51:07;25.56;;;18.88;;
60641;SDS011;46837;52.446;-1.930;2023-04-30T05:52:07;24.14;;;17.34;;
60641;SDS011;46837;52.446;-1.930;2023-04-30T05:53:07;28.42;;;20.68;;
60641;SDS011;46837;52.446;-1.930;2023-04-30T05:54:07;28.18;;;18.84;;
60641;SDS011;46837;52.446;-1.930;2023-04-30T05:55:07;24.18;;;18.00;;
60641;SDS011;46837;52.446;-1.930;2023-04-30T05:56:07;26.58;;;19.70;;
60641;SDS011;46837;52.446;-1.930;2023-04-30T05:57:07;27.82;;;19.64;;
60641;SDS011;46837;52.446;-1.930;2023-04-30T05:58:07;34.68;;;20.10;;
60641;SDS011;46837;52.446;-1.930;2023-04-30T05:59:07;22.88;;;19.00;;
60641;SDS011;46837;52.446;-1.930;2023-04-30T06:00:08;27.16;;;18.90;;
60641;SDS011;46837;52.446;-1.930;2023-04-30T06:01:07;24.22;;;20.44;;
60641;SDS011;46837;52.446;-1.930;2023-04-30T06:02:08;23.84;;;19.98;;
60641;SDS011;46837;52.446;-1.930;2023-04-30T06:03:07;23.52;;;18.88;;
60641;SDS011;46837;52.446;-1.930;2023-04-30T06:04:07;28.66;;;20.36;;
60641;SDS011;46837;52.446;-1.930;2023-04-30T06:05:07;24.00;;;18.54;;
60641;SDS011;46837;52.446;-1.930;2023-04-30T06:06:07;26.30;;;20.20;;